sensor_id;sensor_type;location;lat;lon;timestamp;pressure;altitude;pressure_sealevel;temperature;humidity
72896;BME280;61036;53.224;6.554;2022-12-07T00:01:24;101648.47;;;4.06;100.00
72896;BME280;61036;53.224;6.554;2022-12-07T00:03:57;101644.13;;;4.04;100.00
72896;BME280;61036;53.224;6.554;2022-12-07T00:06:39;101647.78;;;4.00;100.00
72896;BME280;61036;53.224;6.554;2022-12-07T00:09:11;101658.00;;;3.88;100.00
72896;BME280;61036;53.224;6.554;2022-12-07T00:11:39;101655.22;;;3.92;100.00
72896;BME280;61036;53.224;6.554;2022-12-07T00:14:10;101659.63;;;3.93;100.00
72896;BME280;61036;53.224;6.554;2022-12-07T00:16:35;101652.59;;;3.90;100.00
72896;BME280;61036;53.224;6.554;2022-12-07T00:19:03;101649.91;;;3.90;100.00
72896;BME280;61036;53.224;6.554;2022-12-07T00:21:34;101648.09;;;3.92;100.00
72896;BME280;61036;53.224;6.554;2022-12-07T00:24:00;101648.44;;;3.81;100.00
72896;BME280;61036;53.224;6.554;2022-12-07T00:26:34;101648.66;;;3.75;100.00
72896;BME280;61036;53.224;6.554;2022-12-07T00:29:03;101650.44;;;3.75;100.00
72896;BME280;61036;53.224;6.554;2022-12-07T00:31:35;101648.06;;;3.67;100.00
72896;BME280;61036;53.224;6.554;2022-12-07T00:34:05;101648.91;;;3.67;100.00
72896;BME280;61036;53.224;6.554;2022-12-07T00:36:31;101647.16;;;3.66;100.00
72896;BME280;61036;53.224;6.554;2022-12-07T00:38:58;101647.00;;;3.71;100.00
72896;BME280;61036;53.224;6.554;2022-12-07T00:41:25;101646.75;;;3.79;100.00
72896;BME280;61036;53.224;6.554;2022-12-07T00:43:51;101644.03;;;3.80;100.00
72896;BME280;61036;53.224;6.554;2022-12-07T00:46:18;101645.84;;;3.80;100.00
72896;BME280;61036;53.224;6.554;2022-12-07T00:48:49;101627.59;;;3.93;100.00
72896;BME280;61036;53.224;6.554;2022-12-07T00:51:20;101635.13;;;4.06;100.00
72896;BME280;61036;53.224;6.554;2022-12-07T00:53:46;101627.78;;;4.13;100.00
72896;BME280;61036;53.224;6.554;2022-12-07T00:56:19;101628.75;;;4.10;100.00
72896;BME280;61036;53.224;6.554;2022-12-07T00:58:59;101628.44;;;4.20;100.00
72896;BME280;61036;53.224;6.554;2022-12-07T01:01:26;101617.00;;;4.16;100.00
72896;BME280;61036;53.224;6.554;2022-12-07T01:03:55;101613.91;;;4.27;100.00
72896;BME280;61036;53.224;6.554;2022-12-07T01:06:22;101617.06;;;4.38;100.00
72896;BME280;61036;53.224;6.554;2022-12-07T01:08:49;101624.03;;;4.42;100.00
72896;BME280;61036;53.224;6.554;2022-12-07T01:11:18;101623.25;;;4.40;100.00
72896;BME280;61036;53.224;6.554;2022-12-07T01:13:45;101627.97;;;4.32;100.00
72896;BME280;61036;53.224;6.554;2022-12-07T01:16:14;101625.72;;;4.21;100.00
72896;BME280;61036;53.224;6.554;2022-12-07T01:18:40;101623.31;;;4.13;100.00
72896;BME280;61036;53.224;6.554;2022-12-07T01:21:18;101609.09;;;4.13;100.00
72896;BME280;61036;53.224;6.554;2022-12-07T01:23:46;101613.16;;;4.23;100.00
72896;BME280;61036;53.224;6.554;2022-12-07T01:26:14;101613.66;;;4.34;100.00
72896;BME280;61036;53.224;6.554;2022-12-07T01:28:43;101614.41;;;4.38;100.00
72896;BME280;61036;53.224;6.554;2022-12-07T01:31:14;101619.16;;;4.30;100.00
72896;BME280;61036;53.224;6.554;2022-12-07T01:33:46;101626.41;;;4.26;100.00
72896;BME280;61036;53.224;6.554;2022-12-07T01:36:20;101636.97;;;4.29;100.00
72896;BME280;61036;53.224;6.554;2022-12-07T01:38:50;101629.03;;;4.28;100.00
72896;BME280;61036;53.224;6.554;2022-12-07T01:41:19;101632.59;;;4.27;100.00
72896;BME280;61036;53.224;6.554;2022-12-07T01:46:51;101637.31;;;4.20;100.00
72896;BME280;61036;53.224;6.554;2022-12-07T01:54:39;101635.56;;;3.94;100.00
72896;BME280;61036;53.224;6.554;2022-12-07T01:57:06;101638.03;;;4.00;100.00
72896;BME280;61036;53.224;6.554;2022-12-07T01:59:33;101636.91;;;3.81;100.00
72896;BME280;61036;53.224;6.554;2022-12-07T02:02:02;101634.59;;;3.70;100.00
72896;BME280;61036;53.224;6.554;2022-12-07T02:04:29;101635.81;;;3.60;100.00
72896;BME280;61036;53.224;6.554;2022-12-07T02:07:00;101630.97;;;3.46;100.00
72896;BME280;61036;53.224;6.554;2022-12-07T02:09:25;101646.16;;;3.42;100.00
72896;BME280;61036;53.224;6.554;2022-12-07T02:11:52;101634.91;;;3.34;100.00
72896;BME280;61036;53.224;6.554;2022-12-07T02:14:22;101640.47;;;3.27;100.00
72896;BME280;61036;53.224;6.554;2022-12-07T02:22:07;101629.75;;;3.28;100.00
72896;BME280;61036;53.224;6.554;2022-12-07T02:30:17;101640.47;;;3.27;100.00
72896;BME280;61036;53.224;6.554;2022-12-07T02:32:56;101640.63;;;3.22;100.00
72896;BME280;61036;53.224;6.554;2022-12-07T02:35:30;101640.63;;;3.22;100.00
72896;BME280;61036;53.224;6.554;2022-12-07T02:43:25;101636.97;;;3.53;100.00
72896;BME280;61036;53.224;6.554;2022-12-07T02:45:59;101621.00;;;3.78;100.00
72896;BME280;61036;53.224;6.554;2022-12-07T02:48:29;101613.53;;;3.87;100.00
72896;BME280;61036;53.224;6.554;2022-12-07T02:50:56;101609.03;;;3.89;100.00
72896;BME280;61036;53.224;6.554;2022-12-07T02:53:48;101612.19;;;4.01;100.00
72896;BME280;61036;53.224;6.554;2022-12-07T03:07:59;101585.34;;;3.54;100.00
72896;BME280;61036;53.224;6.554;2022-12-07T03:13:32;101589.94;;;3.50;100.00
72896;BME280;61036;53.224;6.554;2022-12-07T03:18:36;101599.09;;;3.68;100.00
72896;BME280;61036;53.224;6.554;2022-12-07T03:21:08;101598.78;;;3.77;100.00
72896;BME280;61036;53.224;6.554;2022-12-07T03:23:37;101616.94;;;3.93;100.00
72896;BME280;61036;53.224;6.554;2022-12-07T03:26:04;101608.78;;;3.97;100.00
72896;BME280;61036;53.224;6.554;2022-12-07T03:28:36;101609.78;;;3.93;100.00
72896;BME280;61036;53.224;6.554;2022-12-07T03:36:37;101597.63;;;3.84;100.00
72896;BME280;61036;53.224;6.554;2022-12-07T03:39:36;101614.91;;;3.74;100.00
72896;BME280;61036;53.224;6.554;2022-12-07T03:42:05;101610.19;;;3.82;100.00
72896;BME280;61036;53.224;6.554;2022-12-07T03:44:35;101602.28;;;3.79;100.00
72896;BME280;61036;53.224;6.554;2022-12-07T03:47:05;101597.97;;;3.75;100.00
72896;BME280;61036;53.224;6.554;2022-12-07T03:49:50;101595.34;;;3.74;100.00
72896;BME280;61036;53.224;6.554;2022-12-07T03:54:54;101597.06;;;3.76;100.00
72896;BME280;61036;53.224;6.554;2022-12-07T03:57:27;101601.00;;;3.64;100.00
72896;BME280;61036;53.224;6.554;2022-12-07T03:59:55;101587.09;;;3.55;100.00
72896;BME280;61036;53.224;6.554;2022-12-07T04:02:23;101585.25;;;3.57;100.00
72896;BME280;61036;53.224;6.554;2022-12-07T04:04:49;101585.34;;;3.54;100.00
72896;BME280;61036;53.224;6.554;2022-12-07T04:07:15;101589.75;;;3.55;100.00
72896;BME280;61036;53.224;6.554;2022-12-07T04:09:40;101586.31;;;3.51;100.00
72896;BME280;61036;53.224;6.554;2022-12-07T04:12:06;101593.72;;;3.43;100.00
72896;BME280;61036;53.224;6.554;2022-12-07T04:14:32;101586.53;;;3.45;100.00
72896;BME280;61036;53.224;6.554;2022-12-07T04:17:00;101594.91;;;3.34;100.00
72896;BME280;61036;53.224;6.554;2022-12-07T04:19:27;101587.09;;;3.28;100.00
72896;BME280;61036;53.224;6.554;2022-12-07T04:21:59;101597.78;;;3.28;100.00
72896;BME280;61036;53.224;6.554;2022-12-07T04:24:27;101595.22;;;3.25;100.00
72896;BME280;61036;53.224;6.554;2022-12-07T04:26:53;101593.34;;;3.27;100.00
72896;BME280;61036;53.224;6.554;2022-12-07T04:29:22;101588.78;;;3.31;100.00
72896;BME280;61036;53.224;6.554;2022-12-07T04:31:48;101590.69;;;3.27;100.00
72896;BME280;61036;53.224;6.554;2022-12-07T04:34:14;101588.78;;;3.31;100.00
72896;BME280;61036;53.224;6.554;2022-12-07T04:36:40;101598.13;;;3.44;100.00
72896;BME280;61036;53.224;6.554;2022-12-07T04:39:18;101608.44;;;3.55;100.00
72896;BME280;61036;53.224;6.554;2022-12-07T04:41:45;101599.00;;;3.71;100.00
72896;BME280;61036;53.224;6.554;2022-12-07T04:44:15;101579.50;;;3.69;100.00
72896;BME280;61036;53.224;6.554;2022-12-07T04:46:41;101588.47;;;3.66;100.00
72896;BME280;61036;53.224;6.554;2022-12-07T04:49:06;101593.16;;;3.60;100.00
72896;BME280;61036;53.224;6.554;2022-12-07T04:51:32;101586.50;;;3.47;100.00
72896;BME280;61036;53.224;6.554;2022-12-07T04:54:00;101579.50;;;3.42;100.00
72896;BME280;61036;53.224;6.554;2022-12-07T04:56:26;101573.91;;;3.24;100.00
72896;BME280;61036;53.224;6.554;2022-12-07T04:58:54;101570.63;;;3.15;100.00
72896;BME280;61036;53.224;6.554;2022-12-07T05:01:22;101570.88;;;3.08;100.00
72896;BME280;61036;53.224;6.554;2022-12-07T05:03:50;101567.50;;;3.03;100.00
72896;BME280;61036;53.224;6.554;2022-12-07T05:06:19;101563.19;;;2.98;100.00
72896;BME280;61036;53.224;6.554;2022-12-07T05:08:47;101568.16;;;2.81;100.00
72896;BME280;61036;53.224;6.554;2022-12-07T05:11:13;101569.38;;;2.71;100.00
72896;BME280;61036;53.224;6.554;2022-12-07T05:14:00;101573.13;;;2.64;100.00
72896;BME280;61036;53.224;6.554;2022-12-07T05:16:28;101572.56;;;2.54;100.00
72896;BME280;61036;53.224;6.554;2022-12-07T05:18:54;101582.41;;;2.50;100.00
72896;BME280;61036;53.224;6.554;2022-12-07T05:21:26;101584.31;;;2.47;100.00
72896;BME280;61036;53.224;6.554;2022-12-07T05:23:52;101585.19;;;2.47;100.00
72896;BME280;61036;53.224;6.554;2022-12-07T05:26:20;101581.69;;;2.45;100.00
72896;BME280;61036;53.224;6.554;2022-12-07T05:28:52;101579.28;;;2.36;100.00
72896;BME280;61036;53.224;6.554;2022-12-07T05:31:18;101579.25;;;2.38;100.00
72896;BME280;61036;53.224;6.554;2022-12-07T05:33:46;101584.69;;;2.33;100.00
72896;BME280;61036;53.224;6.554;2022-12-07T05:36:12;101583.06;;;2.27;100.00
72896;BME280;61036;53.224;6.554;2022-12-07T05:38:40;101583.06;;;2.29;100.00
72896;BME280;61036;53.224;6.554;2022-12-07T05:41:07;101576.59;;;2.38;100.00
72896;BME280;61036;53.224;6.554;2022-12-07T05:43:53;101576.72;;;2.33;100.00
72896;BME280;61036;53.224;6.554;2022-12-07T05:46:21;101572.22;;;2.35;100.00
72896;BME280;61036;53.224;6.554;2022-12-07T05:48:49;101583.75;;;2.36;100.00
72896;BME280;61036;53.224;6.554;2022-12-07T05:51:14;101572.50;;;2.26;100.00
72896;BME280;61036;53.224;6.554;2022-12-07T05:53:43;101568.16;;;2.22;100.00
72896;BME280;61036;53.224;6.554;2022-12-07T05:56:09;101569.84;;;2.26;100.00
72896;BME280;61036;53.224;6.554;2022-12-07T05:58:37;101568.06;;;2.25;100.00
72896;BME280;61036;53.224;6.554;2022-12-07T06:01:24;101568.03;;;2.26;100.00
72896;BME280;61036;53.224;6.554;2022-12-07T06:03:50;101569.16;;;2.18;100.00
72896;BME280;61036;53.224;6.554;2022-12-07T06:06:16;101576.88;;;2.27;100.00
72896;BME280;61036;53.224;6.554;2022-12-07T06:08:44;101589.56;;;2.48;100.00
72896;BME280;61036;53.224;6.554;2022-12-07T06:11:09;101592.53;;;2.69;100.00
72896;BME280;61036;53.224;6.554;2022-12-07T06:13:53;101586.91;;;3.06;100.00
72896;BME280;61036;53.224;6.554;2022-12-07T06:16:22;101577.56;;;3.21;100.00
72896;BME280;61036;53.224;6.554;2022-12-07T06:18:47;101561.75;;;3.15;100.00
72896;BME280;61036;53.224;6.554;2022-12-07T06:21:13;101561.03;;;3.10;100.00
72896;BME280;61036;53.224;6.554;2022-12-07T06:23:40;101559.38;;;3.07;100.00
72896;BME280;61036;53.224;6.554;2022-12-07T06:26:07;101559.41;;;3.06;100.00
72896;BME280;61036;53.224;6.554;2022-12-07T06:28:32;101554.56;;;2.90;100.00
72896;BME280;61036;53.224;6.554;2022-12-07T06:31:01;101553.63;;;2.91;100.00
72896;BME280;61036;53.224;6.554;2022-12-07T06:33:30;101546.69;;;2.86;100.00
72896;BME280;61036;53.224;6.554;2022-12-07T06:35:58;101545.06;;;2.82;100.00
72896;BME280;61036;53.224;6.554;2022-12-07T06:38:24;101554.13;;;2.76;100.00
72896;BME280;61036;53.224;6.554;2022-12-07T06:40:50;101556.25;;;2.65;100.00
72896;BME280;61036;53.224;6.554;2022-12-07T06:43:16;101557.06;;;2.67;100.00
72896;BME280;61036;53.224;6.554;2022-12-07T06:45:44;101550.38;;;2.54;100.00
72896;BME280;61036;53.224;6.554;2022-12-07T06:48:10;101555.03;;;2.47;100.00
72896;BME280;61036;53.224;6.554;2022-12-07T06:50:35;101554.22;;;2.43;100.00
72896;BME280;61036;53.224;6.554;2022-12-07T06:53:04;101557.03;;;2.39;100.00
72896;BME280;61036;53.224;6.554;2022-12-07T06:55:30;101559.97;;;2.29;100.00
72896;BME280;61036;53.224;6.554;2022-12-07T06:57:55;101559.78;;;2.36;100.00
72896;BME280;61036;53.224;6.554;2022-12-07T07:00:22;101570.94;;;2.48;100.00
72896;BME280;61036;53.224;6.554;2022-12-07T07:02:50;101579.22;;;2.67;100.00
72896;BME280;61036;53.224;6.554;2022-12-07T07:05:18;101596.31;;;2.90;100.00
72896;BME280;61036;53.224;6.554;2022-12-07T07:07:46;101607.47;;;3.03;100.00
72896;BME280;61036;53.224;6.554;2022-12-07T07:10:15;101611.66;;;3.10;100.00
72896;BME280;61036;53.224;6.554;2022-12-07T07:12:41;101601.25;;;3.02;100.00
72896;BME280;61036;53.224;6.554;2022-12-07T07:15:07;101603.97;;;3.01;100.00
72896;BME280;61036;53.224;6.554;2022-12-07T07:17:32;101600.44;;;3.00;100.00
72896;BME280;61036;53.224;6.554;2022-12-07T07:19:58;101589.66;;;3.03;100.00
72896;BME280;61036;53.224;6.554;2022-12-07T07:22:26;101590.44;;;3.07;100.00
72896;BME280;61036;53.224;6.554;2022-12-07T07:24:52;101580.69;;;3.07;100.00
72896;BME280;61036;53.224;6.554;2022-12-07T07:27:20;101575.34;;;3.07;100.00
72896;BME280;61036;53.224;6.554;2022-12-07T07:29:45;101575.06;;;3.16;100.00
72896;BME280;61036;53.224;6.554;2022-12-07T07:32:14;101575.91;;;3.17;100.00
72896;BME280;61036;53.224;6.554;2022-12-07T07:34:40;101574.94;;;3.19;100.00
72896;BME280;61036;53.224;6.554;2022-12-07T07:37:08;101574.94;;;3.19;100.00
72896;BME280;61036;53.224;6.554;2022-12-07T07:39:36;101580.41;;;3.15;100.00
72896;BME280;61036;53.224;6.554;2022-12-07T07:42:05;101578.22;;;3.01;100.00
72896;BME280;61036;53.224;6.554;2022-12-07T07:44:32;101577.75;;;2.87;100.00
72896;BME280;61036;53.224;6.554;2022-12-07T07:46:57;101577.31;;;2.72;100.00
72896;BME280;61036;53.224;6.554;2022-12-07T07:49:23;101575.03;;;2.60;100.00
72896;BME280;61036;53.224;6.554;2022-12-07T07:51:49;101570.16;;;2.45;100.00
72896;BME280;61036;53.224;6.554;2022-12-07T07:54:17;101588.72;;;2.46;100.00
72896;BME280;61036;53.224;6.554;2022-12-07T07:56:42;101580.03;;;2.41;100.00
72896;BME280;61036;53.224;6.554;2022-12-07T07:59:08;101581.75;;;2.42;100.00
72896;BME280;61036;53.224;6.554;2022-12-07T08:01:34;101583.28;;;2.51;100.00
72896;BME280;61036;53.224;6.554;2022-12-07T08:04:00;101591.09;;;2.57;100.00
72896;BME280;61036;53.224;6.554;2022-12-07T08:06:25;101582.88;;;2.65;100.00
72896;BME280;61036;53.224;6.554;2022-12-07T08:08:53;101583.59;;;2.70;100.00
72896;BME280;61036;53.224;6.554;2022-12-07T08:11:20;101587.22;;;2.67;100.00
72896;BME280;61036;53.224;6.554;2022-12-07T08:13:46;101585.50;;;2.66;100.00
72896;BME280;61036;53.224;6.554;2022-12-07T08:16:19;101586.50;;;2.62;100.00
72896;BME280;61036;53.224;6.554;2022-12-07T08:18:50;101582.41;;;2.80;100.00
72896;BME280;61036;53.224;6.554;2022-12-07T08:21:15;101581.06;;;2.95;100.00
72896;BME280;61036;53.224;6.554;2022-12-07T08:23:41;101579.78;;;3.07;100.00
72896;BME280;61036;53.224;6.554;2022-12-07T08:26:10;101589.66;;;3.03;100.00
72896;BME280;61036;53.224;6.554;2022-12-07T08:28:36;101583.28;;;3.09;100.00
72896;BME280;61036;53.224;6.554;2022-12-07T08:31:07;101581.38;;;3.12;100.00
72896;BME280;61036;53.224;6.554;2022-12-07T08:33:34;101588.59;;;3.09;100.00
72896;BME280;61036;53.224;6.554;2022-12-07T08:36:02;101603.50;;;3.42;100.00
72896;BME280;61036;53.224;6.554;2022-12-07T08:38:28;101602.00;;;3.60;100.00
72896;BME280;61036;53.224;6.554;2022-12-07T08:40:57;101608.09;;;3.90;100.00
72896;BME280;61036;53.224;6.554;2022-12-07T08:43:25;101601.47;;;3.77;100.00
72896;BME280;61036;53.224;6.554;2022-12-07T08:46:03;101591.16;;;4.17;100.00
72896;BME280;61036;53.224;6.554;2022-12-07T08:48:36;101586.34;;;4.26;100.00
72896;BME280;61036;53.224;6.554;2022-12-07T08:51:03;101581.25;;;5.13;100.00
72896;BME280;61036;53.224;6.554;2022-12-07T08:53:29;101570.06;;;5.03;100.00
72896;BME280;61036;53.224;6.554;2022-12-07T08:55:57;101574.75;;;4.74;100.00
72896;BME280;61036;53.224;6.554;2022-12-07T08:58:23;101572.03;;;4.52;100.00
72896;BME280;61036;53.224;6.554;2022-12-07T09:00:49;101572.88;;;4.29;100.00
72896;BME280;61036;53.224;6.554;2022-12-07T09:03:15;101568.78;;;4.44;100.00
72896;BME280;61036;53.224;6.554;2022-12-07T09:05:41;101564.25;;;4.46;100.00
72896;BME280;61036;53.224;6.554;2022-12-07T09:08:11;101559.94;;;4.42;100.00
72896;BME280;61036;53.224;6.554;2022-12-07T09:10:37;101552.00;;;4.17;100.00
72896;BME280;61036;53.224;6.554;2022-12-07T09:13:05;101559.00;;;4.20;100.00
72896;BME280;61036;53.224;6.554;2022-12-07T09:15:30;101566.69;;;4.29;100.00
72896;BME280;61036;53.224;6.554;2022-12-07T09:17:57;101561.00;;;4.62;100.00
72896;BME280;61036;53.224;6.554;2022-12-07T09:20:22;101555.50;;;4.88;100.00
72896;BME280;61036;53.224;6.554;2022-12-07T09:22:48;101564.53;;;5.30;100.00
72896;BME280;61036;53.224;6.554;2022-12-07T09:25:16;101556.72;;;5.45;100.00
72896;BME280;61036;53.224;6.554;2022-12-07T09:27:41;101557.84;;;4.96;100.00
72896;BME280;61036;53.224;6.554;2022-12-07T09:30:07;101557.69;;;5.00;100.00
72896;BME280;61036;53.224;6.554;2022-12-07T09:32:33;101559.75;;;4.94;100.00
72896;BME280;61036;53.224;6.554;2022-12-07T09:34:58;101562.66;;;4.88;100.00
72896;BME280;61036;53.224;6.554;2022-12-07T09:37:24;101568.66;;;4.93;100.00
72896;BME280;61036;53.224;6.554;2022-12-07T09:39:50;101569.97;;;4.82;100.00
72896;BME280;61036;53.224;6.554;2022-12-07T09:42:33;101580.22;;;4.93;100.00
72896;BME280;61036;53.224;6.554;2022-12-07T09:44:59;101570.59;;;5.11;100.00
72896;BME280;61036;53.224;6.554;2022-12-07T09:47:28;101576.97;;;5.31;100.00
72896;BME280;61036;53.224;6.554;2022-12-07T09:50:04;101587.75;;;5.49;100.00
72896;BME280;61036;53.224;6.554;2022-12-07T09:52:30;101582.47;;;5.48;100.00
72896;BME280;61036;53.224;6.554;2022-12-07T09:54:59;101572.31;;;5.56;100.00
72896;BME280;61036;53.224;6.554;2022-12-07T09:57:31;101575.66;;;4.97;100.00
72896;BME280;61036;53.224;6.554;2022-12-07T10:00:03;101561.59;;;4.92;100.00
72896;BME280;61036;53.224;6.554;2022-12-07T10:02:44;101558.22;;;4.87;100.00
72896;BME280;61036;53.224;6.554;2022-12-07T10:05:47;101558.78;;;5.39;100.00
72896;BME280;61036;53.224;6.554;2022-12-07T10:08:14;101546.22;;;7.52;100.00
72896;BME280;61036;53.224;6.554;2022-12-07T10:10:48;101542.38;;;7.04;100.00
72896;BME280;61036;53.224;6.554;2022-12-07T10:13:19;101548.75;;;6.26;100.00
72896;BME280;61036;53.224;6.554;2022-12-07T10:23:43;101554.53;;;5.55;100.00
72896;BME280;61036;53.224;6.554;2022-12-07T10:28:59;101546.06;;;5.66;100.00
72896;BME280;61036;53.224;6.554;2022-12-07T10:31:28;101550.31;;;5.90;100.00
72896;BME280;61036;53.224;6.554;2022-12-07T10:33:57;101550.00;;;5.98;100.00
72896;BME280;61036;53.224;6.554;2022-12-07T10:39:03;101538.56;;;6.34;100.00
72896;BME280;61036;53.224;6.554;2022-12-07T10:41:29;101534.06;;;6.15;100.00
72896;BME280;61036;53.224;6.554;2022-12-07T10:43:56;101534.13;;;6.14;100.00
72896;BME280;61036;53.224;6.554;2022-12-07T10:47:24;101521.38;;;6.00;100.00
72896;BME280;61036;53.224;6.554;2022-12-07T10:49:53;101537.81;;;5.91;100.00
72896;BME280;61036;53.224;6.554;2022-12-07T11:15:35;101514.50;;;5.32;100.00
72896;BME280;61036;53.224;6.554;2022-12-07T11:18:15;101511.31;;;5.01;100.00
72896;BME280;61036;53.224;6.554;2022-12-07T11:34:22;101483.22;;;5.34;100.00
72896;BME280;61036;53.224;6.554;2022-12-07T11:36:52;101476.81;;;5.58;100.00
72896;BME280;61036;53.224;6.554;2022-12-07T11:39:37;101474.72;;;5.44;100.00
72896;BME280;61036;53.224;6.554;2022-12-07T11:42:28;101476.13;;;5.53;100.00
72896;BME280;61036;53.224;6.554;2022-12-07T11:53:12;101473.34;;;5.36;100.00
72896;BME280;61036;53.224;6.554;2022-12-07T12:06:36;101464.75;;;5.07;100.00
72896;BME280;61036;53.224;6.554;2022-12-07T12:11:46;101463.78;;;5.08;100.00
72896;BME280;61036;53.224;6.554;2022-12-07T12:22:18;101449.03;;;5.20;100.00
72896;BME280;61036;53.224;6.554;2022-12-07T12:24:50;101446.59;;;5.15;100.00
72896;BME280;61036;53.224;6.554;2022-12-07T12:27:32;101450.41;;;5.30;100.00
72896;BME280;61036;53.224;6.554;2022-12-07T12:30:04;101446.09;;;5.26;100.00
72896;BME280;61036;53.224;6.554;2022-12-07T12:32:39;101438.06;;;5.26;100.00
72896;BME280;61036;53.224;6.554;2022-12-07T12:35:26;101427.94;;;5.34;100.00
72896;BME280;61036;53.224;6.554;2022-12-07T12:37:56;101427.34;;;5.48;100.00
72896;BME280;61036;53.224;6.554;2022-12-07T12:40:39;101420.16;;;5.48;100.00
72896;BME280;61036;53.224;6.554;2022-12-07T12:43:42;101417.81;;;5.41;100.00
72896;BME280;61036;53.224;6.554;2022-12-07T12:51:46;101426.25;;;5.52;100.00
72896;BME280;61036;53.224;6.554;2022-12-07T12:54:19;101431.00;;;5.25;100.00
72896;BME280;61036;53.224;6.554;2022-12-07T12:56:53;101421.47;;;4.77;100.00
72896;BME280;61036;53.224;6.554;2022-12-07T13:01:58;101416.19;;;4.75;100.00
72896;BME280;61036;53.224;6.554;2022-12-07T13:04:40;101408.34;;;4.71;100.00
72896;BME280;61036;53.224;6.554;2022-12-07T13:31:47;101415.16;;;4.57;100.00
72896;BME280;61036;53.224;6.554;2022-12-07T13:34:41;101432.16;;;4.55;100.00
72896;BME280;61036;53.224;6.554;2022-12-07T13:37:28;101432.56;;;4.22;100.00
72896;BME280;61036;53.224;6.554;2022-12-07T13:40:17;101427.25;;;3.99;100.00
72896;BME280;61036;53.224;6.554;2022-12-07T13:42:44;101428.00;;;4.02;100.00
72896;BME280;61036;53.224;6.554;2022-12-07T13:45:30;101418.31;;;3.76;100.00
72896;BME280;61036;53.224;6.554;2022-12-07T13:48:43;101406.66;;;3.55;100.00
72896;BME280;61036;53.224;6.554;2022-12-07T13:51:21;101408.50;;;3.53;100.00
72896;BME280;61036;53.224;6.554;2022-12-07T13:54:11;101396.25;;;3.48;100.00
72896;BME280;61036;53.224;6.554;2022-12-07T13:56:37;101399.38;;;3.35;100.00
72896;BME280;61036;53.224;6.554;2022-12-07T13:59:13;101398.97;;;3.21;100.00
72896;BME280;61036;53.224;6.554;2022-12-07T14:01:40;101392.16;;;3.14;100.00
72896;BME280;61036;53.224;6.554;2022-12-07T14:06:51;101386.69;;;3.17;100.00
72896;BME280;61036;53.224;6.554;2022-12-07T14:09:25;101385.00;;;3.14;100.00
72896;BME280;61036;53.224;6.554;2022-12-07T14:11:56;101386.59;;;3.20;100.00
72896;BME280;61036;53.224;6.554;2022-12-07T14:14:29;101382.53;;;3.33;100.00
72896;BME280;61036;53.224;6.554;2022-12-07T14:17:00;101390.53;;;3.33;100.00
72896;BME280;61036;53.224;6.554;2022-12-07T14:22:21;101389.69;;;3.33;100.00
72896;BME280;61036;53.224;6.554;2022-12-07T14:24:47;101393.97;;;3.37;100.00
72896;BME280;61036;53.224;6.554;2022-12-07T14:27:18;101387.94;;;3.32;100.00
72896;BME280;61036;53.224;6.554;2022-12-07T14:29:43;101396.00;;;3.30;100.00
72896;BME280;61036;53.224;6.554;2022-12-07T14:32:20;101396.59;;;3.38;100.00
72896;BME280;61036;53.224;6.554;2022-12-07T14:35:10;101397.56;;;3.36;100.00
72896;BME280;61036;53.224;6.554;2022-12-07T14:37:37;101393.59;;;3.48;100.00
72896;BME280;61036;53.224;6.554;2022-12-07T14:40:05;101395.44;;;3.46;100.00
72896;BME280;61036;53.224;6.554;2022-12-07T14:42:31;101397.06;;;3.50;100.00
72896;BME280;61036;53.224;6.554;2022-12-07T14:44:57;101407.09;;;3.43;100.00
72896;BME280;61036;53.224;6.554;2022-12-07T14:47:25;101406.75;;;3.52;100.00
72896;BME280;61036;53.224;6.554;2022-12-07T14:49:51;101392.75;;;3.46;100.00
72896;BME280;61036;53.224;6.554;2022-12-07T14:52:24;101384.88;;;3.42;100.00
72896;BME280;61036;53.224;6.554;2022-12-07T14:54:52;101385.09;;;3.36;100.00
72896;BME280;61036;53.224;6.554;2022-12-07T14:57:18;101378.75;;;3.40;100.00
72896;BME280;61036;53.224;6.554;2022-12-07T14:59:46;101369.78;;;3.43;100.00
72896;BME280;61036;53.224;6.554;2022-12-07T15:02:13;101362.88;;;3.37;100.00
72896;BME280;61036;53.224;6.554;2022-12-07T15:04:44;101360.66;;;3.25;100.00
72896;BME280;61036;53.224;6.554;2022-12-07T15:07:18;101361.56;;;3.24;100.00
72896;BME280;61036;53.224;6.554;2022-12-07T15:09:45;101365.88;;;3.28;100.00
72896;BME280;61036;53.224;6.554;2022-12-07T15:12:11;101359.94;;;3.20;100.00
72896;BME280;61036;53.224;6.554;2022-12-07T15:14:36;101360.16;;;3.14;100.00
72896;BME280;61036;53.224;6.554;2022-12-07T15:17:02;101365.75;;;3.06;100.00
72896;BME280;61036;53.224;6.554;2022-12-07T15:19:28;101363.03;;;3.08;100.00
72896;BME280;61036;53.224;6.554;2022-12-07T15:21:58;101371.06;;;3.06;100.00
72896;BME280;61036;53.224;6.554;2022-12-07T15:24:28;101364.25;;;2.99;100.00
72896;BME280;61036;53.224;6.554;2022-12-07T15:26:56;101367.25;;;2.88;100.00
72896;BME280;61036;53.224;6.554;2022-12-07T15:29:21;101366.03;;;2.98;100.00
72896;BME280;61036;53.224;6.554;2022-12-07T15:31:51;101358.69;;;3.05;100.00
72896;BME280;61036;53.224;6.554;2022-12-07T15:34:19;101357.88;;;3.03;100.00
72896;BME280;61036;53.224;6.554;2022-12-07T15:36:44;101360.41;;;3.06;100.00
72896;BME280;61036;53.224;6.554;2022-12-07T15:39:10;101352.81;;;2.95;100.00
72896;BME280;61036;53.224;6.554;2022-12-07T15:41:37;101351.78;;;3.00;100.00
72896;BME280;61036;53.224;6.554;2022-12-07T15:44:03;101355.69;;;3.14;100.00
72896;BME280;61036;53.224;6.554;2022-12-07T15:46:47;101348.34;;;3.21;100.00
72896;BME280;61036;53.224;6.554;2022-12-07T15:49:21;101342.22;;;3.19;100.00
72896;BME280;61036;53.224;6.554;2022-12-07T15:51:47;101338.03;;;3.12;100.00
72896;BME280;61036;53.224;6.554;2022-12-07T15:54:23;101350.00;;;3.25;100.00